createdAt,value
2017-07-21T00:00:23.000Z,0
2017-07-21T00:01:04.185Z,0
2017-07-21T00:01:45.372Z,0
2017-07-21T00:02:26.656Z,0
2017-07-21T00:03:07.750Z,0
2017-07-21T00:03:48.835Z,0
2017-07-21T00:04:30.031Z,0
2017-07-21T00:05:11.020Z,0
2017-07-21T00:05:52.126Z,0
2017-07-21T00:06:33.264Z,0
2017-07-21T00:07:14.224Z,0
2017-07-21T00:07:55.513Z,0
2017-07-21T00:08:36.501Z,0
2017-07-21T00:09:17.593Z,0
2017-07-21T00:09:58.780Z,0
2017-07-21T00:10:39.876Z,0
2017-07-21T00:11:20.962Z,0
2017-07-21T00:12:02.058Z,0
2017-07-21T00:12:43.741Z,0
2017-07-21T00:13:24.824Z,0
2017-07-21T00:14:05.914Z,0
2017-07-21T00:14:47.099Z,0
2017-07-21T00:15:28.382Z,0
2017-07-21T00:16:09.378Z,0
2017-07-21T00:16:50.582Z,0
2017-07-21T00:17:46.566Z,0
2017-07-21T00:18:28.171Z,0
2017-07-21T00:19:09.349Z,0
2017-07-21T00:19:50.548Z,0
2017-07-21T00:20:31.640Z,0
2017-07-21T00:21:12.726Z,0
2017-07-21T00:21:53.721Z,0
2017-07-21T00:22:34.839Z,0
2017-07-21T00:23:16.131Z,0
2017-07-21T00:23:57.121Z,0
2017-07-21T00:24:38.324Z,0
2017-07-21T00:25:19.517Z,0
2017-07-21T00:26:00.508Z,0
2017-07-21T00:26:41.603Z,0
2017-07-21T00:27:22.691Z,0
2017-07-21T00:28:03.807Z,0
2017-07-21T00:28:44.899Z,0
2017-07-21T00:29:26.094Z,0
2017-07-21T00:30:07.283Z,0
2017-07-21T00:30:48.379Z,0
2017-07-21T00:31:29.380Z,0
2017-07-21T00:32:10.466Z,0
2017-07-21T00:32:52.357Z,0
2017-07-21T00:33:33.646Z,0
2017-07-21T00:34:14.731Z,0
2017-07-21T00:34:56.018Z,0
2017-07-21T00:35:37.219Z,0
2017-07-21T00:36:18.208Z,0
2017-07-21T00:36:59.292Z,0
2017-07-21T00:37:40.400Z,0
2017-07-21T00:38:21.406Z,0
2017-07-21T00:39:02.602Z,0
2017-07-21T00:39:43.892Z,0
2017-07-21T00:40:24.899Z,0
2017-07-21T00:41:06.374Z,0
2017-07-21T00:41:47.654Z,0
2017-07-21T00:42:28.842Z,0
2017-07-21T00:43:09.931Z,0
2017-07-21T00:43:50.919Z,0
2017-07-21T00:44:32.013Z,0
2017-07-21T00:45:14.191Z,0
2017-07-21T00:45:55.277Z,0
2017-07-21T00:46:36.472Z,0
2017-07-21T00:47:17.468Z,0
2017-07-21T00:47:58.643Z,0
2017-07-21T00:48:39.838Z,0
2017-07-21T00:49:20.928Z,0
2017-07-21T00:50:01.909Z,0
2017-07-21T00:50:43.004Z,0
2017-07-21T00:51:24.093Z,0
2017-07-21T00:52:05.178Z,0
2017-07-21T00:52:46.160Z,0
2017-07-21T00:53:27.253Z,0
2017-07-21T00:54:08.360Z,0
2017-07-21T00:54:49.546Z,0
2017-07-21T00:55:30.730Z,0
2017-07-21T00:56:11.837Z,0
2017-07-21T00:56:53.050Z,0
2017-07-21T00:57:34.140Z,0
2017-07-21T00:58:15.431Z,0
2017-07-21T00:58:56.615Z,0
2017-07-21T00:59:37.730Z,0
2017-07-21T01:00:19.022Z,0
2017-07-21T01:01:00.101Z,0
2017-07-21T01:01:41.397Z,0
2017-07-21T01:02:22.384Z,0
2017-07-21T01:03:03.579Z,0
2017-07-21T01:03:45.070Z,0
2017-07-21T01:04:26.248Z,0
2017-07-21T01:05:07.240Z,0
2017-07-21T01:05:48.423Z,0
2017-07-21T01:06:29.708Z,0
2017-07-21T01:07:11.010Z,0
2017-07-21T01:07:52.199Z,0
2017-07-21T01:08:33.279Z,0
2017-07-21T01:09:14.364Z,0
2017-07-21T01:09:55.552Z,0
2017-07-21T01:10:36.734Z,0
2017-07-21T01:11:17.811Z,0
2017-07-21T01:11:59.097Z,0
2017-07-21T01:12:40.084Z,0
2017-07-21T01:13:21.175Z,0
2017-07-21T01:14:02.253Z,0
2017-07-21T01:14:43.439Z,0
2017-07-21T01:15:24.420Z,0
2017-07-21T01:16:05.606Z,0
2017-07-21T01:16:46.790Z,0
2017-07-21T01:17:27.873Z,0
2017-07-21T01:18:08.860Z,0
2017-07-21T01:18:49.945Z,0
2017-07-21T01:19:30.923Z,0
2017-07-21T01:20:11.810Z,0
2017-07-21T01:20:52.894Z,0
2017-07-21T01:21:33.976Z,0
2017-07-21T01:22:15.258Z,0
2017-07-21T01:22:56.447Z,0
2017-07-21T01:23:37.853Z,0
2017-07-21T01:24:18.952Z,0
2017-07-21T01:25:00.033Z,0
2017-07-21T01:25:41.524Z,0
2017-07-21T01:26:22.708Z,0
2017-07-21T01:27:03.787Z,0
2017-07-21T01:27:45.375Z,0
2017-07-21T01:28:26.355Z,0
2017-07-21T01:29:07.365Z,0
2017-07-21T01:29:48.361Z,0
2017-07-21T01:30:29.847Z,0
2017-07-21T01:31:11.139Z,0
2017-07-21T01:31:52.423Z,0
2017-07-21T01:32:33.410Z,0
2017-07-21T01:33:14.290Z,0
2017-07-21T01:33:55.477Z,0
2017-07-21T01:34:36.554Z,0
2017-07-21T01:35:17.742Z,0
2017-07-21T01:35:58.723Z,0
2017-07-21T01:36:39.917Z,0
2017-07-21T01:37:21.245Z,0
2017-07-21T01:38:02.327Z,0
2017-07-21T01:38:43.319Z,0
2017-07-21T01:39:24.311Z,0
2017-07-21T01:40:05.414Z,0
2017-07-21T01:40:46.805Z,0
2017-07-21T01:41:28.507Z,0
2017-07-21T01:42:09.590Z,0
2017-07-21T01:42:50.980Z,0
2017-07-21T01:43:32.084Z,0
2017-07-21T01:44:13.157Z,0
2017-07-21T01:44:54.057Z,0
2017-07-21T01:45:35.245Z,0
2017-07-21T01:46:16.332Z,0
2017-07-21T01:46:57.313Z,0
2017-07-21T01:47:38.394Z,0
2017-07-21T01:48:19.383Z,0
2017-07-21T01:49:00.469Z,0
2017-07-21T01:49:41.753Z,0
2017-07-21T01:50:22.741Z,0
2017-07-21T01:51:03.824Z,0
2017-07-21T01:51:45.011Z,0
2017-07-21T01:52:26.294Z,0
2017-07-21T01:53:07.478Z,0
2017-07-21T01:53:48.660Z,0
2017-07-21T01:54:29.852Z,0
2017-07-21T01:55:10.927Z,0
2017-07-21T01:55:52.279Z,0
2017-07-21T01:56:33.137Z,0
2017-07-21T01:57:14.226Z,0
2017-07-21T01:57:55.220Z,0
2017-07-21T01:58:36.296Z,0
2017-07-21T01:59:17.692Z,0
2017-07-21T01:59:58.671Z,0
2017-07-21T02:00:39.864Z,0
2017-07-21T02:01:20.753Z,0
2017-07-21T02:02:02.457Z,0
2017-07-21T02:02:43.650Z,0
2017-07-21T02:03:24.734Z,0
2017-07-21T02:04:06.020Z,0
2017-07-21T02:04:47.110Z,0
2017-07-21T02:05:28.189Z,0
2017-07-21T02:06:09.302Z,0
2017-07-21T02:06:50.395Z,0
2017-07-21T02:07:31.491Z,0
2017-07-21T02:08:12.567Z,0
2017-07-21T02:08:53.651Z,0
2017-07-21T02:09:34.741Z,0
2017-07-21T02:10:15.728Z,0
2017-07-21T02:10:56.810Z,0
2017-07-21T02:11:38.002Z,0
2017-07-21T02:12:19.097Z,0
2017-07-21T02:13:00.274Z,0
2017-07-21T02:13:41.360Z,0
2017-07-21T02:14:22.545Z,0
2017-07-21T02:15:03.728Z,0
2017-07-21T02:15:44.619Z,0
2017-07-21T02:16:25.794Z,0
2017-07-21T02:17:06.877Z,0
2017-07-21T02:17:47.960Z,0
2017-07-21T02:18:29.144Z,0
2017-07-21T02:19:10.329Z,0
2017-07-21T02:19:51.515Z,0
2017-07-21T02:20:32.597Z,0
2017-07-21T02:21:13.783Z,0
2017-07-21T02:21:54.771Z,0
2017-07-21T02:22:35.969Z,0
2017-07-21T02:23:16.955Z,0
2017-07-21T02:23:58.141Z,0
2017-07-21T02:24:39.215Z,0
2017-07-21T02:25:20.205Z,0
2017-07-21T02:26:02.556Z,0
2017-07-21T02:26:44.045Z,0
2017-07-21T02:27:25.228Z,0
2017-07-21T02:28:06.716Z,0
2017-07-21T02:28:47.699Z,0
2017-07-21T02:29:28.602Z,0
2017-07-21T02:30:09.669Z,0
2017-07-21T02:30:50.756Z,0
2017-07-21T02:31:31.950Z,0
2017-07-21T02:32:13.037Z,0
2017-07-21T02:32:54.220Z,0
2017-07-21T02:33:35.396Z,0
2017-07-21T02:34:16.587Z,0
2017-07-21T02:34:57.673Z,0
2017-07-21T02:35:38.863Z,0
2017-07-21T02:36:19.858Z,0
2017-07-21T02:37:01.042Z,0
2017-07-21T02:37:42.321Z,0
2017-07-21T02:38:23.417Z,0
2017-07-21T02:39:04.499Z,0
2017-07-21T02:39:45.585Z,0
2017-07-21T02:40:26.664Z,0
2017-07-21T02:41:07.855Z,0
2017-07-21T02:41:48.931Z,0
2017-07-21T02:42:30.019Z,0
2017-07-21T02:43:11.202Z,0
2017-07-21T02:43:52.383Z,0
2017-07-21T02:44:33.575Z,0
2017-07-21T02:45:15.188Z,0
2017-07-21T02:45:57.021Z,0
2017-07-21T02:46:38.319Z,0
2017-07-21T02:47:19.296Z,0
2017-07-21T02:48:00.385Z,0
2017-07-21T02:48:41.472Z,0
2017-07-21T02:49:22.652Z,0
2017-07-21T02:50:03.839Z,0
2017-07-21T02:50:45.126Z,0
2017-07-21T02:51:26.306Z,0
2017-07-21T02:52:07.397Z,0
2017-07-21T02:52:48.494Z,0
2017-07-21T02:53:29.593Z,0
2017-07-21T02:54:10.674Z,0
2017-07-21T02:54:51.660Z,0
2017-07-21T02:55:32.953Z,0
2017-07-21T02:56:14.024Z,0
2017-07-21T02:56:55.515Z,0
2017-07-21T02:57:36.498Z,0
2017-07-21T02:58:17.681Z,0
2017-07-21T02:58:58.763Z,0
2017-07-21T02:59:39.860Z,0
2017-07-21T03:00:20.751Z,0
2017-07-21T03:01:01.741Z,0
2017-07-21T03:01:42.841Z,0
2017-07-21T03:02:24.024Z,0
2017-07-21T03:03:05.208Z,0
2017-07-21T03:03:46.398Z,0
2017-07-21T03:04:27.675Z,0
2017-07-21T03:05:08.865Z,0
2017-07-21T03:05:50.080Z,0
2017-07-21T03:06:31.074Z,0
2017-07-21T03:07:12.163Z,0
2017-07-21T03:07:53.253Z,0
2017-07-21T03:08:34.442Z,0
2017-07-21T03:09:15.731Z,0
2017-07-21T03:09:56.914Z,0
2017-07-21T03:10:38.216Z,0
2017-07-21T03:11:19.400Z,0
2017-07-21T03:12:00.493Z,0
2017-07-21T03:12:41.601Z,0
2017-07-21T03:13:22.983Z,0
2017-07-21T03:14:04.086Z,0
2017-07-21T03:14:45.085Z,0
2017-07-21T03:15:26.173Z,0
2017-07-21T03:16:07.460Z,0
2017-07-21T03:16:48.550Z,0
2017-07-21T03:17:29.758Z,0
2017-07-21T03:18:10.947Z,0
2017-07-21T03:18:52.045Z,0
2017-07-21T03:19:33.037Z,0
2017-07-21T03:20:14.013Z,0
2017-07-21T03:20:55.231Z,0
2017-07-21T03:21:36.286Z,0
2017-07-21T03:22:17.470Z,0
2017-07-21T03:22:58.562Z,0
2017-07-21T03:23:39.744Z,0
2017-07-21T03:24:21.035Z,0
2017-07-21T03:25:02.422Z,0
2017-07-21T03:25:43.517Z,0
2017-07-21T03:26:24.507Z,0
2017-07-21T03:27:05.900Z,0
2017-07-21T03:27:47.199Z,0
2017-07-21T03:28:28.482Z,0
2017-07-21T03:29:09.473Z,0
2017-07-21T03:29:50.468Z,5
2017-07-21T03:30:31.457Z,5
2017-07-21T03:31:12.445Z,5
2017-07-21T03:31:53.432Z,5
2017-07-21T03:32:34.620Z,5
2017-07-21T03:33:15.701Z,5
2017-07-21T03:33:56.791Z,5
2017-07-21T03:34:37.876Z,5
2017-07-21T03:35:18.870Z,5
2017-07-21T03:35:59.907Z,5
2017-07-21T03:36:41.095Z,5
2017-07-21T03:37:22.184Z,5
2017-07-21T03:38:03.267Z,5
2017-07-21T03:38:44.459Z,5
2017-07-21T03:39:25.545Z,5
2017-07-21T03:40:06.635Z,10
2017-07-21T03:40:47.822Z,10
2017-07-21T03:41:29.009Z,10
2017-07-21T03:42:09.999Z,10
2017-07-21T03:42:51.191Z,10
2017-07-21T03:43:32.177Z,10
2017-07-21T03:44:13.263Z,10
2017-07-21T03:44:54.360Z,10
2017-07-21T03:45:35.549Z,10
2017-07-21T03:46:16.537Z,15
2017-07-21T03:46:57.625Z,15
2017-07-21T03:47:38.825Z,15
2017-07-21T03:48:19.709Z,15
2017-07-21T03:49:00.797Z,15
2017-07-21T03:49:41.991Z,15
2017-07-21T03:50:23.086Z,15
2017-07-21T03:51:04.275Z,20
2017-07-21T03:51:45.367Z,20
2017-07-21T03:52:26.552Z,20
2017-07-21T03:53:07.652Z,20
2017-07-21T03:53:48.941Z,20
2017-07-21T03:54:29.927Z,20
2017-07-21T03:55:10.928Z,25
2017-07-21T03:55:52.144Z,25
2017-07-21T03:56:33.233Z,25
2017-07-21T03:57:14.827Z,25
2017-07-21T03:57:56.018Z,25
2017-07-21T03:58:36.995Z,25
2017-07-21T03:59:18.187Z,25
2017-07-21T03:59:59.374Z,25
2017-07-21T04:00:40.456Z,25
2017-07-21T04:01:21.948Z,30
2017-07-21T04:02:03.033Z,30
2017-07-21T04:02:44.328Z,30
2017-07-21T04:03:25.411Z,30
2017-07-21T04:04:06.508Z,30
2017-07-21T04:04:48.498Z,30
2017-07-21T04:05:30.000Z,30
2017-07-21T04:06:11.205Z,35
2017-07-21T04:06:52.503Z,35
2017-07-21T04:07:33.490Z,35
2017-07-21T04:08:14.882Z,40
2017-07-21T04:08:55.972Z,40
2017-07-21T04:09:37.164Z,45
2017-07-21T04:10:18.253Z,45
2017-07-21T04:10:59.567Z,50
2017-07-21T04:11:40.756Z,50
2017-07-21T04:12:21.943Z,55
2017-07-21T04:13:03.032Z,55
2017-07-21T04:13:44.115Z,55
2017-07-21T04:14:25.200Z,60
2017-07-21T04:15:06.291Z,60
2017-07-21T04:15:47.545Z,60
2017-07-21T04:16:28.435Z,60
2017-07-21T04:17:09.635Z,60
2017-07-21T04:17:50.830Z,60
2017-07-21T04:18:32.218Z,60
2017-07-21T04:19:13.205Z,60
2017-07-21T04:19:54.289Z,60
2017-07-21T04:20:35.484Z,60
2017-07-21T04:21:16.772Z,60
2017-07-21T04:21:57.975Z,60
2017-07-21T04:22:38.954Z,60
2017-07-21T04:23:20.147Z,60
2017-07-21T04:24:01.332Z,60
2017-07-21T04:24:42.514Z,65
2017-07-21T04:25:24.222Z,65
2017-07-21T04:26:05.400Z,65
2017-07-21T04:26:46.498Z,65
2017-07-21T04:27:27.689Z,60
2017-07-21T04:28:08.783Z,60
2017-07-21T04:28:50.178Z,60
2017-07-21T04:29:31.365Z,60
2017-07-21T04:30:12.453Z,65
2017-07-21T04:30:53.741Z,65
2017-07-21T04:31:34.839Z,65
2017-07-21T04:32:15.944Z,65
2017-07-21T04:32:57.033Z,65
2017-07-21T04:33:37.921Z,65
2017-07-21T04:34:19.002Z,65
2017-07-21T04:35:00.686Z,65
2017-07-21T04:35:42.069Z,65
2017-07-21T04:36:23.266Z,65
2017-07-21T04:37:04.449Z,65
2017-07-21T04:37:45.639Z,65
2017-07-21T04:38:26.725Z,65
2017-07-21T04:39:08.927Z,65
2017-07-21T04:39:50.115Z,70
2017-07-21T04:40:31.306Z,70
2017-07-21T04:41:12.402Z,75
2017-07-21T04:41:54.781Z,75
2017-07-21T04:42:36.076Z,75
2017-07-21T04:43:17.265Z,75
2017-07-21T04:43:58.561Z,80
2017-07-21T04:44:39.448Z,80
2017-07-21T04:45:20.538Z,80
2017-07-21T04:46:01.761Z,80
2017-07-21T04:46:43.041Z,80
2017-07-21T04:47:24.141Z,85
2017-07-21T04:48:05.340Z,85
2017-07-21T04:48:46.630Z,85
2017-07-21T04:49:27.714Z,90
2017-07-21T04:50:08.704Z,90
2017-07-21T04:50:49.698Z,90
2017-07-21T04:51:30.783Z,90
2017-07-21T04:52:11.973Z,95
2017-07-21T04:52:53.160Z,95
2017-07-21T04:53:34.261Z,100
2017-07-21T04:54:15.352Z,100
2017-07-21T04:54:56.542Z,100
2017-07-21T04:55:37.535Z,95
2017-07-21T04:56:18.723Z,95
2017-07-21T04:56:59.810Z,100
2017-07-21T04:57:40.997Z,100
2017-07-21T04:58:22.082Z,105
2017-07-21T04:59:03.371Z,105
2017-07-21T04:59:46.861Z,105
2017-07-21T05:00:27.857Z,105
2017-07-21T05:01:11.652Z,110
2017-07-21T05:01:52.737Z,110
2017-07-21T05:02:33.831Z,110
2017-07-21T05:03:15.629Z,110
2017-07-21T05:03:58.816Z,115
2017-07-21T05:04:40.013Z,115
2017-07-21T05:05:21.312Z,115
2017-07-21T05:06:04.128Z,115
2017-07-21T05:06:45.417Z,115
2017-07-21T05:07:26.505Z,120
2017-07-21T05:08:07.601Z,120
2017-07-21T05:08:49.397Z,120
2017-07-21T05:09:30.485Z,120
2017-07-21T05:10:11.583Z,125
2017-07-21T05:10:52.673Z,125
2017-07-21T05:11:33.668Z,125
2017-07-21T05:12:14.648Z,125
2017-07-21T05:12:55.740Z,130
2017-07-21T05:13:36.735Z,130
2017-07-21T05:14:17.725Z,130
2017-07-21T05:14:58.704Z,135
2017-07-21T05:15:40.133Z,135
2017-07-21T05:16:21.222Z,140
2017-07-21T05:17:02.405Z,140
2017-07-21T05:17:43.496Z,140
2017-07-21T05:18:24.483Z,140
2017-07-21T05:19:05.477Z,140
2017-07-21T05:19:46.564Z,140
2017-07-21T05:20:27.549Z,145
2017-07-21T05:21:08.556Z,145
2017-07-21T05:21:49.729Z,145
2017-07-21T05:22:30.814Z,145
2017-07-21T05:23:11.924Z,150
2017-07-21T05:23:53.413Z,150
2017-07-21T05:24:34.605Z,155
2017-07-21T05:25:16.204Z,155
2017-07-21T05:25:57.603Z,155
2017-07-21T05:26:38.542Z,160
2017-07-21T05:27:19.741Z,160
2017-07-21T05:28:00.821Z,165
2017-07-21T05:28:41.707Z,165
2017-07-21T05:29:22.804Z,165
2017-07-21T05:30:03.687Z,170
2017-07-21T05:30:44.780Z,170
2017-07-21T05:31:26.177Z,170
2017-07-21T05:32:07.165Z,175
2017-07-21T05:32:48.257Z,175
2017-07-21T05:33:29.250Z,180
2017-07-21T05:34:10.345Z,180
2017-07-21T05:34:51.340Z,185
2017-07-21T05:35:32.533Z,185
2017-07-21T05:36:13.625Z,190
2017-07-21T05:36:55.579Z,195
2017-07-21T05:37:36.672Z,195
2017-07-21T05:38:17.668Z,195
2017-07-21T05:38:58.666Z,200
2017-07-21T05:39:39.663Z,200
2017-07-21T05:40:21.153Z,200
2017-07-21T05:41:02.139Z,205
2017-07-21T05:41:43.321Z,205
2017-07-21T05:42:24.510Z,210
2017-07-21T05:43:05.930Z,215
2017-07-21T05:43:47.028Z,210
2017-07-21T05:44:28.115Z,210
2017-07-21T05:45:09.122Z,220
2017-07-21T05:45:50.340Z,220
2017-07-21T05:46:31.425Z,220
2017-07-21T05:47:12.413Z,225
2017-07-21T05:47:54.303Z,230
2017-07-21T05:48:35.299Z,230
2017-07-21T05:49:16.385Z,235
2017-07-21T05:49:57.575Z,240
2017-07-21T05:50:38.664Z,245
2017-07-21T05:51:20.456Z,250
2017-07-21T05:52:01.445Z,250
2017-07-21T05:52:42.529Z,250
2017-07-21T05:53:23.527Z,255
2017-07-21T05:54:04.910Z,255
2017-07-21T05:54:46.007Z,260
2017-07-21T05:55:27.095Z,265
2017-07-21T05:56:08.244Z,270
2017-07-21T05:56:49.936Z,270
2017-07-21T05:57:30.921Z,275
2017-07-21T05:58:12.017Z,305
2017-07-21T05:58:53.104Z,510
2017-07-21T05:59:33.994Z,770
2017-07-21T06:00:14.982Z,930
2017-07-21T06:00:56.096Z,975
2017-07-21T06:01:37.174Z,1005
2017-07-21T06:02:18.173Z,1010
2017-07-21T06:02:59.271Z,1015
2017-07-21T06:03:40.367Z,1020
2017-07-21T06:04:21.566Z,1035
2017-07-21T06:05:02.557Z,1030
2017-07-21T06:05:43.553Z,1035
2017-07-21T06:06:24.649Z,1020
2017-07-21T06:07:05.646Z,1020
2017-07-21T06:07:46.749Z,1035
2017-07-21T06:08:27.842Z,1045
2017-07-21T06:09:08.943Z,1045
2017-07-21T06:09:50.040Z,1045
2017-07-21T06:10:31.146Z,970
2017-07-21T06:11:12.142Z,1045
2017-07-21T06:11:53.139Z,1075
2017-07-21T06:12:34.051Z,1045
2017-07-21T06:13:15.323Z,905
2017-07-21T06:13:57.125Z,690
2017-07-21T06:14:38.317Z,495
2017-07-21T06:15:19.508Z,395
2017-07-21T06:16:00.601Z,390
2017-07-21T06:16:41.601Z,390
2017-07-21T06:17:22.619Z,390
2017-07-21T06:18:03.741Z,395
2017-07-21T06:18:44.735Z,390
2017-07-21T06:19:26.029Z,395
2017-07-21T06:20:07.122Z,390
2017-07-21T06:20:48.417Z,395
2017-07-21T06:21:29.608Z,395
2017-07-21T06:22:10.912Z,395
2017-07-21T06:22:52.017Z,400
2017-07-21T06:23:33.097Z,400
2017-07-21T06:24:14.290Z,400
2017-07-21T06:24:55.805Z,400
2017-07-21T06:25:36.904Z,405
2017-07-21T06:26:18.104Z,390
2017-07-21T06:26:59.203Z,345
2017-07-21T06:27:40.289Z,365
2017-07-21T06:28:21.393Z,385
2017-07-21T06:29:02.499Z,380
2017-07-21T06:29:43.489Z,385
2017-07-21T06:30:24.795Z,385
2017-07-21T06:31:05.993Z,375
2017-07-21T06:31:46.995Z,390
2017-07-21T06:32:27.992Z,395
2017-07-21T06:33:09.094Z,405
2017-07-21T06:33:50.190Z,395
2017-07-21T06:34:31.484Z,390
2017-07-21T06:35:12.959Z,410
2017-07-21T06:35:55.515Z,410
2017-07-21T06:36:36.633Z,410
2017-07-21T06:37:17.719Z,440
2017-07-21T06:37:59.329Z,540
2017-07-21T06:38:40.519Z,690
2017-07-21T06:39:21.516Z,785
2017-07-21T06:40:02.613Z,830
2017-07-21T06:40:44.011Z,850
2017-07-21T06:41:25.004Z,860
2017-07-21T06:42:05.992Z,890
2017-07-21T06:42:47.392Z,935
2017-07-21T06:43:28.482Z,950
2017-07-21T06:44:09.570Z,975
2017-07-21T06:44:50.980Z,975
2017-07-21T06:45:32.362Z,915
2017-07-21T06:46:13.458Z,1000
2017-07-21T06:46:54.956Z,1100
2017-07-21T06:47:36.366Z,1130
2017-07-21T06:48:17.573Z,1110
2017-07-21T06:48:58.767Z,1105
2017-07-21T06:49:39.877Z,1100
2017-07-21T06:50:21.055Z,1080
2017-07-21T06:51:16.613Z,945
2017-07-21T06:51:57.702Z,1055
2017-07-21T06:52:38.705Z,1075
2017-07-21T06:53:19.811Z,1085
2017-07-21T06:54:01.018Z,1090
2017-07-21T06:54:42.311Z,1085
2017-07-21T06:55:23.408Z,965
2017-07-21T06:56:04.512Z,1055
2017-07-21T06:56:48.224Z,1020
2017-07-21T06:57:29.322Z,1020
2017-07-21T06:58:10.417Z,1030
2017-07-21T06:58:51.612Z,1030
2017-07-21T06:59:32.616Z,1010
2017-07-21T07:00:13.809Z,1045
2017-07-21T07:00:54.908Z,1030
2017-07-21T07:01:36.009Z,1030
2017-07-21T07:02:17.006Z,1050
2017-07-21T07:02:58.201Z,1045
2017-07-21T07:03:39.299Z,1010
2017-07-21T07:04:20.403Z,1045
2017-07-21T07:05:01.605Z,1075
2017-07-21T07:05:42.723Z,1105
2017-07-21T07:06:24.814Z,1085
2017-07-21T07:07:06.125Z,1085
2017-07-21T07:07:48.128Z,1075
2017-07-21T07:08:29.229Z,1055
2017-07-21T07:09:10.335Z,1015
2017-07-21T07:09:52.229Z,910
2017-07-21T07:10:33.229Z,765
2017-07-21T07:11:14.124Z,615
2017-07-21T07:11:55.323Z,540
2017-07-21T07:12:36.314Z,520
2017-07-21T07:13:17.409Z,515
2017-07-21T07:13:59.706Z,505
2017-07-21T07:14:40.918Z,490
2017-07-21T07:15:21.907Z,495
2017-07-21T07:16:02.910Z,500
2017-07-21T07:16:44.003Z,505
2017-07-21T07:17:25.204Z,505
2017-07-21T07:18:06.308Z,505
2017-07-21T07:18:47.522Z,505
2017-07-21T07:19:28.627Z,510
2017-07-21T07:20:09.952Z,505
2017-07-21T07:20:51.276Z,505
2017-07-21T07:21:32.504Z,510
2017-07-21T07:22:13.609Z,510
2017-07-21T07:22:54.712Z,510
2017-07-21T07:23:36.223Z,520
2017-07-21T07:24:17.414Z,500
2017-07-21T07:24:58.489Z,510
2017-07-21T07:25:39.986Z,510
2017-07-21T07:26:23.108Z,490
2017-07-21T07:27:04.209Z,495
2017-07-21T07:27:45.717Z,500
2017-07-21T07:28:26.909Z,510
2017-07-21T07:29:07.900Z,510
2017-07-21T07:29:49.019Z,510
2017-07-21T07:30:30.409Z,510
2017-07-21T07:31:11.414Z,520
2017-07-21T07:31:52.508Z,520
2017-07-21T07:32:33.613Z,525
2017-07-21T07:33:14.605Z,525
2017-07-21T07:33:55.718Z,525
2017-07-21T07:34:36.821Z,525
2017-07-21T07:35:18.016Z,530
2017-07-21T07:35:59.037Z,535
2017-07-21T07:36:40.030Z,540
2017-07-21T07:37:21.126Z,550
2017-07-21T07:38:02.328Z,650
2017-07-21T07:38:44.026Z,860
2017-07-21T07:39:25.135Z,1175
2017-07-21T07:40:06.328Z,1460
2017-07-21T07:40:47.415Z,1750
2017-07-21T07:41:28.528Z,2045
2017-07-21T07:42:09.725Z,2220
2017-07-21T07:42:51.127Z,2240
2017-07-21T07:43:32.524Z,2255
2017-07-21T07:44:13.547Z,2250
2017-07-21T07:44:54.635Z,2300
2017-07-21T07:45:35.759Z,2315
2017-07-21T07:46:18.559Z,2325
2017-07-21T07:46:59.570Z,2350
2017-07-21T07:47:40.777Z,2355
2017-07-21T07:48:21.868Z,2370
2017-07-21T07:49:02.774Z,2410
2017-07-21T07:49:44.429Z,2485
2017-07-21T07:50:25.706Z,2620
2017-07-21T07:51:06.923Z,2755
2017-07-21T07:51:48.408Z,2795
2017-07-21T07:52:29.520Z,2875
2017-07-21T07:53:12.200Z,2860
2017-07-21T07:53:53.214Z,2835
2017-07-21T07:54:34.599Z,2860
2017-07-21T07:55:16.184Z,2915
2017-07-21T07:55:57.195Z,2950
2017-07-21T07:56:38.392Z,2955
2017-07-21T07:57:19.710Z,2965
2017-07-21T07:58:01.901Z,2995
2017-07-21T07:58:43.016Z,3040
2017-07-21T07:59:24.351Z,3095
2017-07-21T08:00:05.556Z,3140
2017-07-21T08:00:46.854Z,3170
2017-07-21T08:01:28.760Z,3230
2017-07-21T08:02:09.859Z,3240
2017-07-21T08:02:53.469Z,3275
2017-07-21T08:03:34.576Z,3325
2017-07-21T08:04:15.769Z,3340
2017-07-21T08:04:57.100Z,3370
2017-07-21T08:05:38.501Z,3360
2017-07-21T08:06:20.676Z,3325
2017-07-21T08:07:02.489Z,3345
2017-07-21T08:07:43.583Z,3350
2017-07-21T08:08:24.889Z,3350
2017-07-21T08:09:06.089Z,3335
2017-07-21T08:09:47.089Z,3330
2017-07-21T08:10:28.188Z,3320
2017-07-21T08:11:09.391Z,3315
2017-07-21T08:11:50.589Z,3325
2017-07-21T08:12:31.588Z,3370
2017-07-21T08:13:12.796Z,3385
2017-07-21T08:13:54.095Z,3380
2017-07-21T08:14:35.296Z,3340
2017-07-21T08:15:16.782Z,3320
2017-07-21T08:15:58.105Z,3300
2017-07-21T08:16:39.424Z,3355
2017-07-21T08:17:20.724Z,3415
2017-07-21T08:18:02.139Z,3460
2017-07-21T08:18:43.342Z,3515
2017-07-21T08:19:24.269Z,3515
2017-07-21T08:20:05.575Z,3530
2017-07-21T08:20:50.981Z,3520
2017-07-21T08:21:33.986Z,3495
2017-07-21T08:22:15.286Z,3460
2017-07-21T08:22:56.492Z,3480
2017-07-21T08:23:37.604Z,3490
2017-07-21T08:24:18.800Z,3500
2017-07-21T08:24:59.824Z,3520
2017-07-21T08:25:40.929Z,3570
2017-07-21T08:26:22.025Z,3555
2017-07-21T08:27:03.946Z,3580
2017-07-21T08:27:45.059Z,3590
2017-07-21T08:28:26.259Z,3575
2017-07-21T08:29:07.559Z,3560
2017-07-21T08:29:48.963Z,3515
2017-07-21T08:30:30.072Z,3515
2017-07-21T08:31:11.274Z,3550
2017-07-21T08:31:52.282Z,3590
2017-07-21T08:32:33.391Z,3590
2017-07-21T08:33:14.593Z,3585
2017-07-21T08:33:55.696Z,3515
2017-07-21T08:34:36.895Z,3495
2017-07-21T08:35:18.006Z,3450
2017-07-21T08:36:00.316Z,3470
2017-07-21T08:36:41.322Z,3475
2017-07-21T08:37:22.344Z,3495
2017-07-21T08:38:03.547Z,3485
2017-07-21T08:38:44.651Z,3475
2017-07-21T08:39:25.946Z,3505
2017-07-21T08:40:07.058Z,3550
2017-07-21T08:40:50.264Z,3520
2017-07-21T08:41:31.469Z,3490
2017-07-21T08:42:12.578Z,3490
2017-07-21T08:42:53.784Z,3505
2017-07-21T08:43:35.114Z,3550
2017-07-21T08:44:16.432Z,3505
2017-07-21T08:44:57.732Z,3585
2017-07-21T08:45:38.936Z,3565
2017-07-21T08:46:20.257Z,3565
2017-07-21T08:47:03.669Z,3635
2017-07-21T08:47:46.265Z,3630
2017-07-21T08:48:27.376Z,3655
2017-07-21T08:49:08.483Z,3640
2017-07-21T08:49:49.690Z,3585
2017-07-21T08:50:30.701Z,3600
2017-07-21T08:51:11.724Z,3590
2017-07-21T08:51:52.833Z,3635
2017-07-21T08:52:33.934Z,3480
2017-07-21T08:53:17.446Z,3575
2017-07-21T08:53:58.961Z,3665
2017-07-21T08:54:40.167Z,3730
2017-07-21T08:55:21.482Z,3735
2017-07-21T08:56:04.290Z,3790
2017-07-21T08:56:45.500Z,3790
2017-07-21T08:57:26.676Z,3815
2017-07-21T08:58:07.874Z,3845
2017-07-21T08:58:49.218Z,3835
2017-07-21T08:59:30.326Z,3805
2017-07-21T09:00:11.542Z,3815
2017-07-21T09:00:52.644Z,3815
2017-07-21T09:01:33.760Z,3740
2017-07-21T09:02:15.067Z,3715
2017-07-21T09:02:56.453Z,3680
2017-07-21T09:03:37.885Z,3715
2017-07-21T09:04:19.174Z,3720
2017-07-21T09:05:00.979Z,3725
2017-07-21T09:05:42.292Z,3730
2017-07-21T09:06:24.313Z,3675
2017-07-21T09:07:05.718Z,3630
2017-07-21T09:07:47.829Z,3595
2017-07-21T09:08:29.143Z,3610
2017-07-21T09:09:10.454Z,3625
2017-07-21T09:09:52.762Z,3615
2017-07-21T09:10:33.975Z,3640
2017-07-21T09:11:15.184Z,3625
2017-07-21T09:11:57.092Z,3620
2017-07-21T09:12:38.416Z,3605
2017-07-21T09:13:19.848Z,3570
2017-07-21T09:14:01.064Z,3280
2017-07-21T09:14:42.282Z,3515
2017-07-21T09:15:23.697Z,3640
2017-07-21T09:16:04.993Z,3640
2017-07-21T09:16:46.199Z,3680
2017-07-21T09:17:27.413Z,3670
2017-07-21T09:18:08.723Z,3630
2017-07-21T09:18:50.041Z,3635
2017-07-21T09:19:31.150Z,3595
2017-07-21T09:20:12.149Z,3625
2017-07-21T09:20:54.965Z,3650
2017-07-21T09:21:35.979Z,3685
2017-07-21T09:22:17.198Z,3740
2017-07-21T09:22:58.410Z,3770
2017-07-21T09:23:41.924Z,3795
2017-07-21T09:24:23.235Z,3790
2017-07-21T09:25:04.360Z,3810
2017-07-21T09:25:45.661Z,3825
2017-07-21T09:26:26.784Z,3845
2017-07-21T09:27:07.909Z,3860
2017-07-21T09:27:49.019Z,3885
2017-07-21T09:28:30.433Z,3850
2017-07-21T09:29:11.843Z,3865
2017-07-21T09:29:53.360Z,3855
2017-07-21T09:30:34.462Z,3845
2017-07-21T09:31:15.469Z,3835
2017-07-21T09:31:56.705Z,3830
2017-07-21T09:32:37.811Z,3460
2017-07-21T09:33:19.122Z,3815
2017-07-21T09:34:00.344Z,3795
2017-07-21T09:34:41.849Z,3805
2017-07-21T09:35:22.968Z,3810
2017-07-21T09:36:04.268Z,3815
2017-07-21T09:36:45.390Z,3825
2017-07-21T09:37:26.891Z,3805
2017-07-21T09:38:08.100Z,3810
2017-07-21T09:38:49.210Z,3815
2017-07-21T09:39:30.321Z,3770
2017-07-21T09:40:11.432Z,3800
2017-07-21T09:40:52.536Z,3805